sensor_id;sensor_type;location;lat;lon;timestamp;pressure;altitude;pressure_sealevel;temperature;humidity
35694;BME280;21812;55.536;37.664;2022-10-23T00:01:35;99895.16;;;6.15;74.42
35694;BME280;21812;55.536;37.664;2022-10-23T00:04:07;99863.19;;;5.91;74.37
35694;BME280;21812;55.536;37.664;2022-10-23T00:06:34;99890.81;;;6.06;74.24
35694;BME280;21812;55.536;37.664;2022-10-23T00:09:00;99896.09;;;6.06;74.49
35694;BME280;21812;55.536;37.664;2022-10-23T00:11:33;99886.22;;;6.16;74.48
35694;BME280;21812;55.536;37.664;2022-10-23T00:14:00;99845.75;;;5.88;74.04
35694;BME280;21812;55.536;37.664;2022-10-23T00:16:29;99892.16;;;6.10;74.26
35694;BME280;21812;55.536;37.664;2022-10-23T00:18:57;99881.53;;;6.10;74.42
35694;BME280;21812;55.536;37.664;2022-10-23T00:21:24;99873.22;;;6.05;74.42
35694;BME280;21812;55.536;37.664;2022-10-23T00:23:52;99870.41;;;6.06;74.68
35694;BME280;21812;55.536;37.664;2022-10-23T00:26:20;99860.63;;;6.07;74.26
35694;BME280;21812;55.536;37.664;2022-10-23T00:28:53;99851.97;;;5.97;74.32
35694;BME280;21812;55.536;37.664;2022-10-23T00:31:24;99865.25;;;6.05;74.49
35694;BME280;21812;55.536;37.664;2022-10-23T00:33:50;99856.13;;;5.99;74.05
35694;BME280;21812;55.536;37.664;2022-10-23T00:36:18;99856.47;;;5.96;74.08
35694;BME280;21812;55.536;37.664;2022-10-23T00:38:53;99855.44;;;5.97;74.19
35694;BME280;21812;55.536;37.664;2022-10-23T00:41:27;99819.06;;;5.81;74.02
35694;BME280;21812;55.536;37.664;2022-10-23T00:46:53;99841.31;;;5.88;73.90
35694;BME280;21812;55.536;37.664;2022-10-23T00:49:19;99834.97;;;5.81;74.11
35694;BME280;21812;55.536;37.664;2022-10-23T00:51:57;99844.28;;;5.94;74.15
35694;BME280;21812;55.536;37.664;2022-10-23T00:54:29;99833.16;;;5.90;73.84
35694;BME280;21812;55.536;37.664;2022-10-23T00:56:58;99826.38;;;5.87;73.49
35694;BME280;21812;55.536;37.664;2022-10-23T00:59:26;99815.41;;;5.82;73.27
35694;BME280;21812;55.536;37.664;2022-10-23T01:01:52;99818.72;;;5.84;73.18
35694;BME280;21812;55.536;37.664;2022-10-23T01:04:21;99818.06;;;5.82;73.23
35694;BME280;21812;55.536;37.664;2022-10-23T01:09:32;99813.25;;;5.78;73.56
35694;BME280;21812;55.536;37.664;2022-10-23T01:17:41;99799.34;;;5.58;73.75
35694;BME280;21812;55.536;37.664;2022-10-23T01:20:35;99792.38;;;5.48;73.99
35694;BME280;21812;55.536;37.664;2022-10-23T01:26:36;99798.69;;;5.56;73.97
35694;BME280;21812;55.536;37.664;2022-10-23T01:35:10;99789.81;;;5.39;73.82
35694;BME280;21812;55.536;37.664;2022-10-23T01:37:43;99789.06;;;5.28;73.78
35694;BME280;21812;55.536;37.664;2022-10-23T01:40:29;99782.44;;;5.24;73.96
35694;BME280;21812;55.536;37.664;2022-10-23T01:43:03;99792.88;;;5.26;73.93
35694;BME280;21812;55.536;37.664;2022-10-23T01:45:40;99783.91;;;5.27;73.92
35694;BME280;21812;55.536;37.664;2022-10-23T01:48:13;99786.50;;;5.19;73.66
35694;BME280;21812;55.536;37.664;2022-10-23T01:50:41;99787.97;;;5.13;73.90
35694;BME280;21812;55.536;37.664;2022-10-23T01:53:10;99776.75;;;5.19;73.92
35694;BME280;21812;55.536;37.664;2022-10-23T01:55:37;99756.91;;;4.97;73.11
35694;BME280;21812;55.536;37.664;2022-10-23T01:58:09;99780.78;;;5.05;73.09
35694;BME280;21812;55.536;37.664;2022-10-23T02:00:39;99777.06;;;4.98;72.83
35694;BME280;21812;55.536;37.664;2022-10-23T02:03:11;99778.16;;;4.87;73.21
35694;BME280;21812;55.536;37.664;2022-10-23T02:05:37;99789.72;;;4.86;73.50
35694;BME280;21812;55.536;37.664;2022-10-23T02:08:07;99781.25;;;4.83;73.34
35694;BME280;21812;55.536;37.664;2022-10-23T02:10:52;99779.72;;;4.98;73.41
35694;BME280;21812;55.536;37.664;2022-10-23T02:13:58;99745.50;;;4.79;72.61
35694;BME280;21812;55.536;37.664;2022-10-23T02:24:33;99731.53;;;4.68;72.63
35694;BME280;21812;55.536;37.664;2022-10-23T02:27:11;99759.00;;;4.76;72.91
35694;BME280;21812;55.536;37.664;2022-10-23T02:29:44;99739.69;;;4.57;72.71
35694;BME280;21812;55.536;37.664;2022-10-23T02:32:13;99762.22;;;4.61;72.73
35694;BME280;21812;55.536;37.664;2022-10-23T02:34:40;99765.28;;;4.57;72.92
35694;BME280;21812;55.536;37.664;2022-10-23T02:37:08;99763.78;;;4.54;73.02
35694;BME280;21812;55.536;37.664;2022-10-23T02:39:36;99763.38;;;4.49;73.15
35694;BME280;21812;55.536;37.664;2022-10-23T02:42:16;99759.72;;;4.42;73.25
35694;BME280;21812;55.536;37.664;2022-10-23T02:45:06;99750.78;;;4.43;73.50
35694;BME280;21812;55.536;37.664;2022-10-23T02:50:27;99751.78;;;4.42;73.51
35694;BME280;21812;55.536;37.664;2022-10-23T03:01:10;99699.91;;;4.13;73.53
35694;BME280;21812;55.536;37.664;2022-10-23T03:03:41;99731.50;;;4.33;73.35
35694;BME280;21812;55.536;37.664;2022-10-23T03:06:11;99760.22;;;4.45;72.50
35694;BME280;21812;55.536;37.664;2022-10-23T03:08:48;99727.50;;;4.28;72.29
35694;BME280;21812;55.536;37.664;2022-10-23T03:11:17;99732.56;;;4.40;72.51
35694;BME280;21812;55.536;37.664;2022-10-23T03:13:42;99745.88;;;4.48;71.96
35694;BME280;21812;55.536;37.664;2022-10-23T03:16:09;99732.88;;;4.37;71.11
35694;BME280;21812;55.536;37.664;2022-10-23T03:18:37;99734.84;;;4.35;70.72
35694;BME280;21812;55.536;37.664;2022-10-23T03:21:03;99740.00;;;4.26;70.56
35694;BME280;21812;55.536;37.664;2022-10-23T03:23:32;99733.22;;;4.24;71.63
35694;BME280;21812;55.536;37.664;2022-10-23T03:26:01;99735.94;;;4.14;71.66
35694;BME280;21812;55.536;37.664;2022-10-23T03:28:35;99733.44;;;4.13;71.74
35694;BME280;21812;55.536;37.664;2022-10-23T03:31:09;99733.22;;;4.06;71.55
35694;BME280;21812;55.536;37.664;2022-10-23T03:33:40;99729.41;;;3.90;72.27
35694;BME280;21812;55.536;37.664;2022-10-23T03:36:10;99723.72;;;3.85;72.65
35694;BME280;21812;55.536;37.664;2022-10-23T03:38:38;99724.44;;;3.78;72.60
35694;BME280;21812;55.536;37.664;2022-10-23T03:41:09;99726.78;;;3.81;72.31
35694;BME280;21812;55.536;37.664;2022-10-23T03:43:35;99727.78;;;3.80;72.55
35694;BME280;21812;55.536;37.664;2022-10-23T03:46:01;99725.41;;;3.77;72.49
35694;BME280;21812;55.536;37.664;2022-10-23T03:48:32;99723.44;;;3.79;72.16
35694;BME280;21812;55.536;37.664;2022-10-23T03:51:00;99724.00;;;3.82;72.02
35694;BME280;21812;55.536;37.664;2022-10-23T03:53:25;99726.22;;;3.87;71.75
35694;BME280;21812;55.536;37.664;2022-10-23T03:55:51;99719.78;;;3.89;71.72
35694;BME280;21812;55.536;37.664;2022-10-23T03:58:17;99725.34;;;3.86;70.67
35694;BME280;21812;55.536;37.664;2022-10-23T04:00:45;99719.38;;;3.84;70.95
35694;BME280;21812;55.536;37.664;2022-10-23T04:03:10;99705.91;;;3.87;71.03
35694;BME280;21812;55.536;37.664;2022-10-23T04:05:36;99684.97;;;3.76;70.63
35694;BME280;21812;55.536;37.664;2022-10-23T04:08:02;99707.56;;;3.88;70.70
35694;BME280;21812;55.536;37.664;2022-10-23T04:10:30;99704.22;;;3.86;70.68
35694;BME280;21812;55.536;37.664;2022-10-23T04:12:59;99708.16;;;3.82;70.69
35694;BME280;21812;55.536;37.664;2022-10-23T04:15:33;99709.28;;;3.80;70.74
35694;BME280;21812;55.536;37.664;2022-10-23T04:18:00;99705.41;;;3.74;71.04
35694;BME280;21812;55.536;37.664;2022-10-23T04:20:26;99700.72;;;3.68;70.71
35694;BME280;21812;55.536;37.664;2022-10-23T04:22:53;99698.91;;;3.68;70.98
35694;BME280;21812;55.536;37.664;2022-10-23T04:25:19;99702.22;;;3.70;71.16
35694;BME280;21812;55.536;37.664;2022-10-23T04:27:44;99698.44;;;3.73;71.50
35694;BME280;21812;55.536;37.664;2022-10-23T04:30:13;99698.44;;;3.73;71.61
35694;BME280;21812;55.536;37.664;2022-10-23T04:32:39;99686.66;;;3.77;71.53
35694;BME280;21812;55.536;37.664;2022-10-23T04:35:08;99696.91;;;3.80;71.93
35694;BME280;21812;55.536;37.664;2022-10-23T04:37:36;99680.50;;;3.77;71.40
35694;BME280;21812;55.536;37.664;2022-10-23T04:40:02;99675.41;;;3.75;72.24
35694;BME280;21812;55.536;37.664;2022-10-23T04:42:33;99680.50;;;3.77;72.86
35694;BME280;21812;55.536;37.664;2022-10-23T04:45:03;99682.59;;;3.83;73.07
35694;BME280;21812;55.536;37.664;2022-10-23T04:47:29;99683.41;;;3.83;73.17
35694;BME280;21812;55.536;37.664;2022-10-23T04:49:57;99693.66;;;3.86;72.69
35694;BME280;21812;55.536;37.664;2022-10-23T04:52:41;99678.59;;;3.97;73.49
35694;BME280;21812;55.536;37.664;2022-10-23T04:55:30;99674.69;;;4.01;74.47
35694;BME280;21812;55.536;37.664;2022-10-23T04:58:15;99678.94;;;4.11;75.09
35694;BME280;21812;55.536;37.664;2022-10-23T05:00:42;99685.44;;;4.17;75.16
35694;BME280;21812;55.536;37.664;2022-10-23T05:03:11;99680.22;;;4.25;75.29
35694;BME280;21812;55.536;37.664;2022-10-23T05:05:40;99672.34;;;4.34;74.84
35694;BME280;21812;55.536;37.664;2022-10-23T05:08:25;99681.88;;;4.44;75.06
35694;BME280;21812;55.536;37.664;2022-10-23T05:11:07;99685.41;;;4.53;75.06
35694;BME280;21812;55.536;37.664;2022-10-23T05:13:39;99683.00;;;4.60;74.72
35694;BME280;21812;55.536;37.664;2022-10-23T05:16:05;99676.66;;;4.70;74.59
35694;BME280;21812;55.536;37.664;2022-10-23T05:18:35;99679.22;;;4.80;73.91
35694;BME280;21812;55.536;37.664;2022-10-23T05:21:12;99672.38;;;4.78;74.08
35694;BME280;21812;55.536;37.664;2022-10-23T05:23:41;99673.16;;;4.70;73.94
35694;BME280;21812;55.536;37.664;2022-10-23T05:26:08;99676.25;;;4.83;74.63
35694;BME280;21812;55.536;37.664;2022-10-23T05:28:35;99665.22;;;4.88;73.96
35694;BME280;21812;55.536;37.664;2022-10-23T05:31:03;99666.81;;;4.81;73.86
35694;BME280;21812;55.536;37.664;2022-10-23T05:33:33;99666.56;;;4.92;74.35
35694;BME280;21812;55.536;37.664;2022-10-23T05:35:59;99666.03;;;4.88;74.11
35694;BME280;21812;55.536;37.664;2022-10-23T05:38:28;99631.06;;;4.59;74.62
35694;BME280;21812;55.536;37.664;2022-10-23T05:41:00;99659.09;;;4.69;75.03
35694;BME280;21812;55.536;37.664;2022-10-23T05:43:33;99658.19;;;4.79;75.63
35694;BME280;21812;55.536;37.664;2022-10-23T05:46:24;99654.63;;;4.88;74.95
35694;BME280;21812;55.536;37.664;2022-10-23T05:49:12;99655.28;;;4.90;75.24
35694;BME280;21812;55.536;37.664;2022-10-23T05:52:13;99651.97;;;4.88;75.37
35694;BME280;21812;55.536;37.664;2022-10-23T05:54:59;99653.31;;;4.92;75.09
35694;BME280;21812;55.536;37.664;2022-10-23T05:57:50;99655.28;;;4.90;75.43
35694;BME280;21812;55.536;37.664;2022-10-23T06:00:21;99630.38;;;4.75;75.99
35694;BME280;21812;55.536;37.664;2022-10-23T06:03:04;99649.84;;;4.92;76.02
35694;BME280;21812;55.536;37.664;2022-10-23T06:05:37;99650.19;;;4.97;75.65
35694;BME280;21812;55.536;37.664;2022-10-23T06:08:15;99649.09;;;4.99;75.89
35694;BME280;21812;55.536;37.664;2022-10-23T06:10:50;99646.09;;;5.02;75.84
35694;BME280;21812;55.536;37.664;2022-10-23T06:13:17;99637.50;;;5.00;75.97
35694;BME280;21812;55.536;37.664;2022-10-23T06:15:45;99637.19;;;5.03;76.16
35694;BME280;21812;55.536;37.664;2022-10-23T06:18:29;99617.50;;;5.06;76.26
35694;BME280;21812;55.536;37.664;2022-10-23T06:21:01;99619.75;;;5.19;76.51
35694;BME280;21812;55.536;37.664;2022-10-23T06:23:30;99595.09;;;5.18;75.81
35694;BME280;21812;55.536;37.664;2022-10-23T06:26:22;99622.13;;;5.38;75.21
35694;BME280;21812;55.536;37.664;2022-10-23T06:29:09;99612.88;;;5.42;75.39
35694;BME280;21812;55.536;37.664;2022-10-23T06:31:35;99617.75;;;5.55;75.19
35694;BME280;21812;55.536;37.664;2022-10-23T06:34:03;99611.66;;;5.71;74.46
35694;BME280;21812;55.536;37.664;2022-10-23T06:36:31;99610.00;;;5.70;74.03
35694;BME280;21812;55.536;37.664;2022-10-23T06:39:30;99605.88;;;5.67;74.03
35694;BME280;21812;55.536;37.664;2022-10-23T06:42:12;99605.34;;;6.31;79.41
35694;BME280;21812;55.536;37.664;2022-10-23T06:44:49;99599.03;;;8.00;79.88
35694;BME280;21812;55.536;37.664;2022-10-23T06:47:25;99586.75;;;9.13;70.53
35694;BME280;21812;55.536;37.664;2022-10-23T06:50:13;99581.31;;;9.72;63.98
35694;BME280;21812;55.536;37.664;2022-10-23T06:52:39;99581.00;;;10.18;66.93
35694;BME280;21812;55.536;37.664;2022-10-23T06:55:05;99576.84;;;10.59;66.31
35694;BME280;21812;55.536;37.664;2022-10-23T06:57:34;99575.72;;;11.10;64.33
35694;BME280;21812;55.536;37.664;2022-10-23T07:00:00;99565.59;;;11.88;62.17
35694;BME280;21812;55.536;37.664;2022-10-23T07:02:29;99562.59;;;12.38;59.46
35694;BME280;21812;55.536;37.664;2022-10-23T07:04:56;99549.81;;;12.40;56.31
35694;BME280;21812;55.536;37.664;2022-10-23T07:07:32;99551.03;;;12.04;56.66
35694;BME280;21812;55.536;37.664;2022-10-23T07:09:57;99549.97;;;11.92;60.27
35694;BME280;21812;55.536;37.664;2022-10-23T07:12:28;99544.84;;;12.04;58.92
35694;BME280;21812;55.536;37.664;2022-10-23T07:15:15;99539.66;;;11.89;54.81
35694;BME280;21812;55.536;37.664;2022-10-23T07:17:52;99540.63;;;11.74;55.22
35694;BME280;21812;55.536;37.664;2022-10-23T07:20:18;99534.22;;;11.62;59.24
35694;BME280;21812;55.536;37.664;2022-10-23T07:22:51;99524.63;;;10.85;56.83
35694;BME280;21812;55.536;37.664;2022-10-23T07:25:25;99527.31;;;10.56;62.51
35694;BME280;21812;55.536;37.664;2022-10-23T07:27:52;99539.03;;;11.25;61.57
35694;BME280;21812;55.536;37.664;2022-10-23T07:30:20;99528.03;;;11.55;59.72
35694;BME280;21812;55.536;37.664;2022-10-23T07:32:50;99523.34;;;11.70;59.31
35694;BME280;21812;55.536;37.664;2022-10-23T07:35:39;99492.09;;;11.84;54.90
35694;BME280;21812;55.536;37.664;2022-10-23T07:38:13;99525.69;;;12.67;58.54
35694;BME280;21812;55.536;37.664;2022-10-23T07:40:43;99518.25;;;12.89;52.63
35694;BME280;21812;55.536;37.664;2022-10-23T07:43:13;99522.91;;;13.07;55.98
35694;BME280;21812;55.536;37.664;2022-10-23T07:45:39;99516.16;;;13.49;55.22
35694;BME280;21812;55.536;37.664;2022-10-23T07:48:13;99504.00;;;13.85;54.41
35694;BME280;21812;55.536;37.664;2022-10-23T07:51:03;99513.75;;;14.05;53.92
35694;BME280;21812;55.536;37.664;2022-10-23T07:53:34;99506.97;;;14.02;52.84
35694;BME280;21812;55.536;37.664;2022-10-23T07:56:14;99506.69;;;14.11;55.55
35694;BME280;21812;55.536;37.664;2022-10-23T07:59:13;99507.59;;;14.55;53.08
35694;BME280;21812;55.536;37.664;2022-10-23T08:01:43;99503.78;;;14.88;52.46
35694;BME280;21812;55.536;37.664;2022-10-23T08:04:10;99509.88;;;15.32;53.67
35694;BME280;21812;55.536;37.664;2022-10-23T08:06:45;99508.31;;;15.24;48.74
35694;BME280;21812;55.536;37.664;2022-10-23T08:09:11;99504.34;;;15.27;54.97
35694;BME280;21812;55.536;37.664;2022-10-23T08:11:39;99509.34;;;15.41;57.02
35694;BME280;21812;55.536;37.664;2022-10-23T08:14:07;99509.88;;;15.13;55.40
35694;BME280;21812;55.536;37.664;2022-10-23T08:16:35;99499.69;;;14.60;57.36
35694;BME280;21812;55.536;37.664;2022-10-23T08:19:18;99508.81;;;14.59;59.30
35694;BME280;21812;55.536;37.664;2022-10-23T08:21:51;99509.59;;;14.66;58.18
35694;BME280;21812;55.536;37.664;2022-10-23T08:24:19;99513.03;;;14.92;62.97
35694;BME280;21812;55.536;37.664;2022-10-23T08:26:50;99503.03;;;14.99;58.67
35694;BME280;21812;55.536;37.664;2022-10-23T08:29:22;99500.66;;;15.39;59.00
35694;BME280;21812;55.536;37.664;2022-10-23T08:31:53;99504.19;;;15.40;55.45
35694;BME280;21812;55.536;37.664;2022-10-23T08:34:30;99506.28;;;15.38;58.00
35694;BME280;21812;55.536;37.664;2022-10-23T08:37:00;99498.88;;;15.52;58.78
35694;BME280;21812;55.536;37.664;2022-10-23T08:39:28;99490.19;;;15.80;57.83
35694;BME280;21812;55.536;37.664;2022-10-23T08:42:23;99491.78;;;15.99;54.08
35694;BME280;21812;55.536;37.664;2022-10-23T08:45:04;99453.91;;;15.40;55.64
35694;BME280;21812;55.536;37.664;2022-10-23T08:47:44;99461.13;;;15.40;55.04
35694;BME280;21812;55.536;37.664;2022-10-23T08:50:49;99443.06;;;15.29;56.67
35694;BME280;21812;55.536;37.664;2022-10-23T08:53:28;99480.34;;;15.74;56.67
35694;BME280;21812;55.536;37.664;2022-10-23T08:56:04;99449.59;;;15.93;53.78
35694;BME280;21812;55.536;37.664;2022-10-23T08:58:54;99464.72;;;15.94;53.99
35694;BME280;21812;55.536;37.664;2022-10-23T09:01:42;99465.81;;;16.05;54.59
35694;BME280;21812;55.536;37.664;2022-10-23T09:04:12;99458.31;;;16.19;53.26
35694;BME280;21812;55.536;37.664;2022-10-23T09:17:29;99459.63;;;14.77;57.80
35694;BME280;21812;55.536;37.664;2022-10-23T09:20:13;99427.59;;;14.75;56.65
35694;BME280;21812;55.536;37.664;2022-10-23T09:22:41;99451.53;;;14.40;52.03
35694;BME280;21812;55.536;37.664;2022-10-23T09:25:33;99451.09;;;14.18;58.53
35694;BME280;21812;55.536;37.664;2022-10-23T09:28:00;99439.34;;;14.62;57.93
35694;BME280;21812;55.536;37.664;2022-10-23T09:32:58;99441.06;;;14.57;55.30
35694;BME280;21812;55.536;37.664;2022-10-23T09:35:27;99435.28;;;14.90;55.39
35694;BME280;21812;55.536;37.664;2022-10-23T09:37:57;99434.91;;;15.05;52.35
35694;BME280;21812;55.536;37.664;2022-10-23T09:40:35;99404.94;;;15.01;53.01
35694;BME280;21812;55.536;37.664;2022-10-23T09:43:16;99437.44;;;15.00;51.52
35694;BME280;21812;55.536;37.664;2022-10-23T09:45:55;99419.63;;;14.87;53.07
35694;BME280;21812;55.536;37.664;2022-10-23T09:48:24;99432.41;;;14.48;50.33
35694;BME280;21812;55.536;37.664;2022-10-23T09:51:00;99429.06;;;14.53;54.27
35694;BME280;21812;55.536;37.664;2022-10-23T09:53:52;99430.03;;;14.40;56.26
35694;BME280;21812;55.536;37.664;2022-10-23T09:56:31;99431.66;;;14.41;54.35
35694;BME280;21812;55.536;37.664;2022-10-23T09:59:00;99370.84;;;14.46;55.42
35694;BME280;21812;55.536;37.664;2022-10-23T10:01:31;99412.75;;;14.73;54.24
35694;BME280;21812;55.536;37.664;2022-10-23T10:04:34;99418.78;;;14.50;51.80
35694;BME280;21812;55.536;37.664;2022-10-23T10:07:20;99414.44;;;14.30;55.84
35694;BME280;21812;55.536;37.664;2022-10-23T10:09:47;99407.16;;;14.12;50.78
35694;BME280;21812;55.536;37.664;2022-10-23T10:17:51;99405.78;;;13.78;52.50
35694;BME280;21812;55.536;37.664;2022-10-23T10:20:24;99407.66;;;13.07;56.03
35694;BME280;21812;55.536;37.664;2022-10-23T10:25:45;99395.91;;;13.46;58.50
35694;BME280;21812;55.536;37.664;2022-10-23T10:31:22;99393.88;;;13.42;56.23
35694;BME280;21812;55.536;37.664;2022-10-23T10:40:00;99381.63;;;13.78;55.36
35694;BME280;21812;55.536;37.664;2022-10-23T10:42:38;99381.72;;;14.15;56.74
35694;BME280;21812;55.536;37.664;2022-10-23T10:48:06;99379.06;;;13.64;54.61
35694;BME280;21812;55.536;37.664;2022-10-23T10:51:11;99376.66;;;13.56;54.42
35694;BME280;21812;55.536;37.664;2022-10-23T10:53:45;99366.84;;;13.43;52.66
35694;BME280;21812;55.536;37.664;2022-10-23T10:56:14;99310.41;;;13.32;56.80
35694;BME280;21812;55.536;37.664;2022-10-23T10:58:55;99363.94;;;13.45;53.80
35694;BME280;21812;55.536;37.664;2022-10-23T11:02:14;99361.44;;;13.50;58.99
35694;BME280;21812;55.536;37.664;2022-10-23T11:05:26;99333.56;;;13.51;56.37
35694;BME280;21812;55.536;37.664;2022-10-23T11:07:27;99352.50;;;14.25;63.83
35694;BME280;21812;55.536;37.664;2022-10-23T11:10:17;99289.53;;;14.02;61.34
35694;BME280;21812;55.536;37.664;2022-10-23T11:12:44;99328.19;;;14.38;57.09
35694;BME280;21812;55.536;37.664;2022-10-23T11:15:17;99332.78;;;13.94;52.87
35694;BME280;21812;55.536;37.664;2022-10-23T11:17:58;99331.06;;;13.56;57.27
35694;BME280;21812;55.536;37.664;2022-10-23T11:20:47;99330.13;;;13.69;56.90
35694;BME280;21812;55.536;37.664;2022-10-23T11:37:59;99274.94;;;14.17;56.09
35694;BME280;21812;55.536;37.664;2022-10-23T11:40:25;99304.16;;;14.43;57.44
35694;BME280;21812;55.536;37.664;2022-10-23T11:42:54;99302.19;;;14.51;54.92
35694;BME280;21812;55.536;37.664;2022-10-23T11:50:47;99289.91;;;14.24;54.93
35694;BME280;21812;55.536;37.664;2022-10-23T11:56:31;99294.59;;;14.47;58.90
35694;BME280;21812;55.536;37.664;2022-10-23T11:58:55;99255.59;;;14.08;58.10
35694;BME280;21812;55.536;37.664;2022-10-23T12:17:01;99278.38;;;14.05;62.12
35694;BME280;21812;55.536;37.664;2022-10-23T12:19:29;99253.75;;;13.90;57.88
35694;BME280;21812;55.536;37.664;2022-10-23T12:22:13;99274.03;;;13.86;58.63
35694;BME280;21812;55.536;37.664;2022-10-23T12:36:02;99260.81;;;14.21;61.69
35694;BME280;21812;55.536;37.664;2022-10-23T12:38:43;99229.50;;;13.78;57.61
35694;BME280;21812;55.536;37.664;2022-10-23T12:41:13;99252.53;;;14.04;58.98
35694;BME280;21812;55.536;37.664;2022-10-23T12:43:41;99243.34;;;14.31;59.16
35694;BME280;21812;55.536;37.664;2022-10-23T12:46:30;99249.06;;;14.53;58.02
35694;BME280;21812;55.536;37.664;2022-10-23T12:48:58;99247.16;;;14.23;53.79
35694;BME280;21812;55.536;37.664;2022-10-23T12:51:27;99237.56;;;13.97;57.47
35694;BME280;21812;55.536;37.664;2022-10-23T12:53:53;99240.91;;;14.11;58.49
35694;BME280;21812;55.536;37.664;2022-10-23T12:56:23;99211.41;;;13.92;58.09
35694;BME280;21812;55.536;37.664;2022-10-23T12:58:55;99225.78;;;13.98;56.75
35694;BME280;21812;55.536;37.664;2022-10-23T13:01:30;99230.56;;;13.96;57.99
35694;BME280;21812;55.536;37.664;2022-10-23T13:06:44;99234.66;;;13.80;58.57
35694;BME280;21812;55.536;37.664;2022-10-23T13:09:23;99233.44;;;13.57;56.31
35694;BME280;21812;55.536;37.664;2022-10-23T13:12:18;99220.94;;;13.69;59.67
35694;BME280;21812;55.536;37.664;2022-10-23T13:15:14;99191.59;;;13.75;58.21
35694;BME280;21812;55.536;37.664;2022-10-23T13:22:42;99214.69;;;14.13;57.09
35694;BME280;21812;55.536;37.664;2022-10-23T13:27:48;99203.47;;;13.97;57.55
35694;BME280;21812;55.536;37.664;2022-10-23T13:30:42;99213.03;;;14.12;56.67
35694;BME280;21812;55.536;37.664;2022-10-23T13:35:39;99211.00;;;13.52;56.20
35694;BME280;21812;55.536;37.664;2022-10-23T13:38:09;99208.50;;;13.32;56.43
35694;BME280;21812;55.536;37.664;2022-10-23T13:40:35;99201.22;;;13.39;59.66
35694;BME280;21812;55.536;37.664;2022-10-23T13:43:01;99204.72;;;13.14;57.37
35694;BME280;21812;55.536;37.664;2022-10-23T13:45:26;99201.06;;;12.83;59.37
35694;BME280;21812;55.536;37.664;2022-10-23T13:47:53;99209.22;;;12.88;59.31
35694;BME280;21812;55.536;37.664;2022-10-23T13:50:23;99209.50;;;12.80;58.71
35694;BME280;21812;55.536;37.664;2022-10-23T13:52:52;99206.41;;;13.08;59.89
35694;BME280;21812;55.536;37.664;2022-10-23T13:55:22;99209.13;;;13.02;57.88
35694;BME280;21812;55.536;37.664;2022-10-23T13:57:48;99200.38;;;13.13;59.51
35694;BME280;21812;55.536;37.664;2022-10-23T14:00:23;99201.75;;;13.22;59.00
35694;BME280;21812;55.536;37.664;2022-10-23T14:02:51;99200.47;;;13.32;57.88
35694;BME280;21812;55.536;37.664;2022-10-23T14:05:16;99202.44;;;13.18;57.06
35694;BME280;21812;55.536;37.664;2022-10-23T14:07:42;99196.22;;;13.17;58.48
35694;BME280;21812;55.536;37.664;2022-10-23T14:10:15;99195.84;;;12.88;58.85
35694;BME280;21812;55.536;37.664;2022-10-23T14:12:42;99194.53;;;12.98;60.24
35694;BME280;21812;55.536;37.664;2022-10-23T14:15:09;99196.88;;;12.87;60.26
35694;BME280;21812;55.536;37.664;2022-10-23T14:17:40;99200.09;;;12.96;60.10
35694;BME280;21812;55.536;37.664;2022-10-23T14:20:09;99194.13;;;13.19;61.47
35694;BME280;21812;55.536;37.664;2022-10-23T14:22:35;99199.63;;;13.06;59.55
35694;BME280;21812;55.536;37.664;2022-10-23T14:25:04;99194.06;;;13.33;60.32
35694;BME280;21812;55.536;37.664;2022-10-23T14:27:30;99194.31;;;13.24;60.14
35694;BME280;21812;55.536;37.664;2022-10-23T14:29:55;99183.88;;;13.16;59.59
35694;BME280;21812;55.536;37.664;2022-10-23T14:32:24;99195.84;;;12.88;57.67
35694;BME280;21812;55.536;37.664;2022-10-23T14:34:55;99193.91;;;13.02;57.48
35694;BME280;21812;55.536;37.664;2022-10-23T14:37:21;99164.47;;;12.64;62.04
35694;BME280;21812;55.536;37.664;2022-10-23T14:39:49;99194.31;;;12.74;60.94
35694;BME280;21812;55.536;37.664;2022-10-23T14:42:23;99189.78;;;13.00;63.38
35694;BME280;21812;55.536;37.664;2022-10-23T14:44:53;99182.69;;;13.12;62.09
35694;BME280;21812;55.536;37.664;2022-10-23T14:47:30;99182.53;;;13.00;59.28
35694;BME280;21812;55.536;37.664;2022-10-23T14:49:56;99180.53;;;12.96;61.73
35694;BME280;21812;55.536;37.664;2022-10-23T14:52:23;99172.00;;;13.05;63.56
35694;BME280;21812;55.536;37.664;2022-10-23T14:54:51;99167.22;;;13.33;63.27
35694;BME280;21812;55.536;37.664;2022-10-23T14:57:20;99171.00;;;13.25;62.42
35694;BME280;21812;55.536;37.664;2022-10-23T14:59:49;99170.31;;;13.11;60.99
35694;BME280;21812;55.536;37.664;2022-10-23T15:02:15;99167.03;;;13.09;61.94
35694;BME280;21812;55.536;37.664;2022-10-23T15:04:41;99160.66;;;13.28;63.19
35694;BME280;21812;55.536;37.664;2022-10-23T15:07:09;99160.25;;;13.25;58.55
35694;BME280;21812;55.536;37.664;2022-10-23T15:09:35;99150.50;;;13.37;59.01
35694;BME280;21812;55.536;37.664;2022-10-23T15:12:02;99155.28;;;13.54;61.90
35694;BME280;21812;55.536;37.664;2022-10-23T15:14:28;99150.72;;;13.54;60.37
35694;BME280;21812;55.536;37.664;2022-10-23T15:16:54;99146.50;;;13.21;59.19
35694;BME280;21812;55.536;37.664;2022-10-23T15:19:22;99152.22;;;12.81;59.06
35694;BME280;21812;55.536;37.664;2022-10-23T15:21:48;99144.16;;;12.56;61.15
35694;BME280;21812;55.536;37.664;2022-10-23T15:24:17;99149.97;;;12.78;63.18
35694;BME280;21812;55.536;37.664;2022-10-23T15:26:43;99145.91;;;12.94;61.24
35694;BME280;21812;55.536;37.664;2022-10-23T15:29:12;99138.25;;;12.98;60.21
35694;BME280;21812;55.536;37.664;2022-10-23T15:31:41;99142.97;;;12.77;62.27
35694;BME280;21812;55.536;37.664;2022-10-23T15:34:15;99149.19;;;12.71;62.11
35694;BME280;21812;55.536;37.664;2022-10-23T15:36:41;99138.19;;;12.54;63.15
35694;BME280;21812;55.536;37.664;2022-10-23T15:39:19;99141.50;;;12.81;63.26
35694;BME280;21812;55.536;37.664;2022-10-23T15:41:49;99141.53;;;12.49;59.84